createdAt,value
2019-01-20T00:02:26.430Z,176.53
2019-01-20T00:04:57.193Z,193.00
2019-01-20T00:07:28.360Z,181.23
2019-01-20T00:09:59.102Z,180.87
2019-01-20T00:12:30.766Z,188.60
2019-01-20T00:15:02.446Z,179.93
2019-01-20T00:17:33.648Z,187.03
2019-01-20T00:20:10.632Z,182.30
2019-01-20T00:22:42.179Z,193.20
2019-01-20T00:25:13.955Z,205.37
2019-01-20T00:27:44.791Z,175.70
2019-01-20T00:30:16.520Z,180.07
2019-01-20T00:32:47.729Z,188.13
2019-01-20T00:35:19.578Z,160.50
2019-01-20T00:37:50.742Z,194.57
2019-01-20T00:40:21.850Z,187.77
2019-01-20T00:42:53.322Z,189.20
2019-01-20T00:45:24.335Z,187.23
2019-01-20T00:47:55.165Z,198.23
2019-01-20T00:50:26.536Z,187.47
2019-01-20T00:52:58.047Z,177.23
2019-01-20T00:55:29.297Z,184.63
2019-01-20T00:58:00.519Z,187.83
2019-01-20T01:00:33.380Z,180.83
2019-01-20T01:03:04.661Z,180.57
2019-01-20T01:05:36.119Z,183.13
2019-01-20T01:08:07.176Z,170.57
2019-01-20T01:10:38.048Z,170.77
2019-01-20T01:13:10.376Z,167.17
2019-01-20T01:15:41.547Z,174.77
2019-01-20T01:18:12.745Z,183.37
2019-01-20T01:20:44.016Z,167.30
2019-01-20T01:23:15.579Z,185.67
2019-01-20T01:25:47.144Z,164.00
2019-01-20T01:28:18.085Z,175.60
2019-01-20T01:30:49.406Z,188.60
2019-01-20T01:33:20.572Z,171.33
2019-01-20T01:35:51.871Z,170.50
2019-01-20T01:38:23.056Z,181.20
2019-01-20T01:40:54.266Z,181.13
2019-01-20T01:43:25.327Z,187.97
2019-01-20T01:45:56.626Z,197.73
2019-01-20T01:48:27.987Z,180.33
2019-01-20T01:50:59.746Z,174.57
2019-01-20T01:53:30.712Z,168.77
2019-01-20T01:56:02.900Z,187.63
2019-01-20T01:58:34.493Z,178.77
2019-01-20T02:01:07.931Z,178.23
2019-01-20T02:03:39.807Z,186.10
2019-01-20T02:06:11.767Z,185.23
2019-01-20T02:08:42.685Z,180.20
2019-01-20T02:11:14.024Z,172.40
2019-01-20T02:13:46.270Z,161.83
2019-01-20T02:16:18.860Z,159.97
2019-01-20T02:18:50.826Z,168.50
2019-01-20T02:21:23.673Z,168.80
2019-01-20T02:23:54.733Z,157.63
2019-01-20T02:26:26.492Z,144.27
2019-01-20T02:28:57.199Z,155.13
2019-01-20T02:31:28.860Z,141.27
2019-01-20T02:33:59.523Z,136.20
2019-01-20T02:36:30.648Z,158.40
2019-01-20T02:39:02.459Z,156.83
2019-01-20T02:41:34.336Z,151.77
2019-01-20T02:44:06.625Z,143.83
2019-01-20T02:46:38.168Z,153.90
2019-01-20T02:49:09.228Z,139.53
2019-01-20T02:51:44.326Z,124.23
2019-01-20T02:54:15.224Z,160.97
2019-01-20T02:56:46.377Z,125.17
2019-01-20T02:59:18.009Z,140.40
2019-01-20T03:01:53.090Z,152.13
2019-01-20T03:04:25.705Z,150.33
2019-01-20T03:06:56.870Z,137.63
2019-01-20T03:09:27.942Z,132.30
2019-01-20T03:12:03.373Z,106.60
2019-01-20T03:14:32.568Z,114.37
2019-01-20T03:17:03.788Z,130.87
2019-01-20T03:19:37.309Z,140.40
2019-01-20T03:22:08.147Z,134.73
2019-01-20T03:24:39.079Z,124.70
2019-01-20T03:27:09.976Z,136.70
2019-01-20T03:29:41.036Z,130.07
2019-01-20T03:32:12.019Z,134.43
2019-01-20T03:34:43.330Z,130.73
2019-01-20T03:37:14.165Z,138.03
2019-01-20T03:39:45.226Z,122.97
2019-01-20T03:42:16.688Z,131.43
2019-01-20T03:44:48.218Z,122.63
2019-01-20T03:47:18.978Z,124.27
2019-01-20T03:49:50.681Z,116.30
2019-01-20T03:52:21.500Z,127.37
2019-01-20T03:54:52.436Z,125.63
2019-01-20T03:57:23.210Z,132.50
2019-01-20T03:59:54.972Z,127.80
2019-01-20T04:02:26.500Z,117.03
2019-01-20T04:04:57.763Z,115.93
2019-01-20T04:07:29.086Z,107.70
2019-01-20T04:10:00.477Z,125.00
2019-01-20T04:12:31.252Z,114.10
2019-01-20T04:15:02.828Z,129.77
2019-01-20T04:17:33.863Z,128.93
2019-01-20T04:20:05.970Z,150.87
2019-01-20T04:22:37.321Z,129.13
2019-01-20T04:25:10.916Z,133.70
2019-01-20T04:27:41.969Z,126.73
2019-01-20T04:30:15.379Z,128.50
2019-01-20T04:32:46.346Z,119.27
2019-01-20T04:35:19.218Z,105.67
2019-01-20T04:37:50.050Z,132.77
2019-01-20T04:40:23.000Z,124.17
2019-01-20T04:42:53.916Z,151.90
2019-01-20T04:45:25.074Z,137.60
2019-01-20T04:47:55.986Z,136.17
2019-01-20T04:50:27.080Z,130.80
2019-01-20T04:52:58.111Z,122.33
2019-01-20T04:55:28.715Z,113.53
2019-01-20T04:58:00.139Z,124.40
2019-01-20T05:00:31.451Z,118.60
2019-01-20T05:03:03.329Z,122.83
2019-01-20T05:05:34.091Z,121.10
2019-01-20T05:08:05.363Z,124.17
2019-01-20T05:10:36.229Z,132.13
2019-01-20T05:13:07.699Z,139.27
2019-01-20T05:15:39.204Z,132.77
2019-01-20T05:18:10.788Z,164.17
2019-01-20T05:20:42.714Z,150.90
2019-01-20T05:23:13.660Z,150.00
2019-01-20T05:25:44.598Z,148.43
2019-01-20T05:28:15.932Z,116.50
2019-01-20T05:30:47.464Z,158.30
2019-01-20T05:33:19.270Z,148.77
2019-01-20T05:35:50.322Z,147.33
2019-01-20T05:38:21.300Z,160.90
2019-01-20T05:40:52.509Z,163.60
2019-01-20T05:43:23.916Z,147.70
2019-01-20T05:45:55.326Z,140.37
2019-01-20T05:48:26.083Z,156.77
2019-01-20T05:50:57.625Z,150.13
2019-01-20T05:53:28.539Z,162.10
2019-01-20T05:55:59.623Z,145.13
2019-01-20T05:58:31.327Z,148.80
2019-01-20T06:01:02.707Z,155.63
2019-01-20T06:03:33.940Z,171.77
2019-01-20T06:06:05.908Z,161.67
2019-01-20T06:08:36.848Z,166.07
2019-01-20T06:11:09.577Z,180.97
2019-01-20T06:13:40.669Z,156.67
2019-01-20T06:16:11.940Z,188.80
2019-01-20T06:18:44.338Z,177.17
2019-01-20T06:21:15.901Z,199.00
2019-01-20T06:23:48.891Z,190.27
2019-01-20T06:26:19.244Z,189.30
2019-01-20T06:28:49.974Z,183.90
2019-01-20T06:31:20.733Z,205.23
2019-01-20T06:33:52.182Z,210.90
2019-01-20T06:36:23.416Z,207.17
2019-01-20T06:38:54.411Z,209.37
2019-01-20T06:41:25.844Z,213.20
2019-01-20T06:43:57.115Z,218.00
2019-01-20T06:46:28.574Z,219.40
2019-01-20T06:48:59.493Z,211.10
2019-01-20T06:51:31.356Z,245.13
2019-01-20T06:54:02.629Z,252.27
2019-01-20T06:56:34.217Z,232.80
2019-01-20T06:59:05.524Z,217.17
2019-01-20T07:01:37.463Z,219.57
2019-01-20T07:04:09.176Z,230.17
2019-01-20T07:06:40.216Z,203.67
2019-01-20T07:09:11.952Z,247.30
2019-01-20T07:11:43.393Z,228.63
2019-01-20T07:14:14.867Z,215.33
2019-01-20T07:16:45.820Z,227.37
2019-01-20T07:19:22.148Z,207.57
2019-01-20T07:21:53.346Z,179.47
2019-01-20T07:24:25.994Z,169.83
2019-01-20T07:26:57.078Z,168.60
2019-01-20T07:29:29.700Z,176.43
2019-01-20T07:32:00.577Z,180.60
2019-01-20T07:34:32.232Z,173.47
2019-01-20T07:37:02.781Z,174.80
2019-01-20T07:39:34.803Z,177.07
2019-01-20T07:42:06.203Z,183.33
2019-01-20T07:44:37.157Z,187.70
2019-01-20T07:47:08.185Z,169.90
2019-01-20T07:49:38.901Z,169.17
2019-01-20T07:52:10.537Z,185.53
2019-01-20T07:54:41.559Z,185.27
2019-01-20T07:57:14.386Z,182.30
2019-01-20T07:59:45.366Z,179.87
2019-01-20T08:02:16.121Z,164.00
2019-01-20T08:04:47.328Z,171.97
2019-01-20T08:07:18.811Z,170.90
2019-01-20T08:09:54.085Z,167.27
2019-01-20T08:12:24.924Z,170.03
2019-01-20T08:14:56.354Z,190.27
2019-01-20T08:17:27.545Z,172.77
2019-01-20T08:19:58.729Z,164.77
2019-01-20T08:22:30.087Z,167.50
2019-01-20T08:25:01.207Z,179.03
2019-01-20T08:27:32.415Z,168.73
2019-01-20T08:30:02.937Z,157.07
2019-01-20T08:32:33.912Z,142.63
2019-01-20T08:35:05.776Z,147.77
2019-01-20T08:37:36.975Z,140.10
2019-01-20T08:40:11.204Z,161.73
2019-01-20T08:42:42.418Z,137.30
2019-01-20T08:45:18.452Z,148.47
2019-01-20T08:47:53.801Z,142.37
2019-01-20T08:50:25.385Z,153.27
2019-01-20T08:52:57.277Z,148.77
2019-01-20T08:55:31.619Z,149.63
2019-01-20T08:58:02.605Z,156.30
2019-01-20T09:00:34.045Z,169.50
2019-01-20T09:03:05.168Z,150.40
2019-01-20T09:05:36.054Z,147.97
2019-01-20T09:08:07.321Z,146.07
2019-01-20T09:10:38.648Z,144.73
2019-01-20T09:13:10.378Z,147.33
2019-01-20T09:15:41.023Z,148.63
2019-01-20T09:18:12.059Z,144.00
2019-01-20T09:20:42.705Z,141.23
2019-01-20T09:23:13.559Z,148.00
2019-01-20T09:25:44.041Z,139.03
2019-01-20T09:28:15.442Z,137.63
2019-01-20T09:30:46.842Z,155.30
2019-01-20T09:33:24.544Z,141.00
2019-01-20T09:35:50.779Z,148.30
2019-01-20T09:38:22.222Z,147.70
2019-01-20T09:40:52.658Z,136.80
2019-01-20T09:43:23.749Z,141.13
2019-01-20T09:45:56.361Z,145.80
2019-01-20T09:48:27.919Z,140.23
2019-01-20T09:50:59.035Z,131.43
2019-01-20T09:53:30.484Z,128.63
2019-01-20T09:56:01.348Z,133.17
2019-01-20T09:58:32.086Z,141.33
2019-01-20T10:01:04.031Z,135.73
2019-01-20T10:03:35.179Z,130.30
2019-01-20T10:06:06.086Z,134.63
2019-01-20T10:08:38.104Z,139.13
2019-01-20T10:11:09.391Z,132.07
2019-01-20T10:13:40.452Z,147.33
2019-01-20T10:16:14.119Z,136.43
2019-01-20T10:18:45.186Z,133.80
2019-01-20T10:21:15.997Z,123.87
2019-01-20T10:23:47.519Z,136.70
2019-01-20T10:26:18.331Z,127.70
2019-01-20T10:28:49.153Z,114.27
2019-01-20T10:31:19.914Z,121.50
2019-01-20T10:33:51.174Z,132.40
2019-01-20T10:36:22.059Z,123.13
2019-01-20T10:38:52.962Z,118.47
2019-01-20T10:41:23.661Z,119.07
2019-01-20T10:43:54.334Z,125.77
2019-01-20T10:46:25.186Z,127.53
2019-01-20T10:48:57.350Z,124.13
2019-01-20T10:51:28.706Z,128.60
2019-01-20T10:53:59.816Z,137.17
2019-01-20T10:56:30.837Z,123.67
2019-01-20T10:59:01.825Z,116.97
2019-01-20T11:01:33.031Z,110.53
2019-01-20T11:04:04.303Z,98.67
2019-01-20T11:06:35.375Z,106.27
2019-01-20T11:09:07.768Z,98.50
2019-01-20T11:11:38.719Z,91.97
2019-01-20T11:14:10.477Z,87.83
2019-01-20T11:16:41.795Z,79.13
2019-01-20T11:19:12.432Z,85.37
2019-01-20T11:21:43.370Z,79.10
2019-01-20T11:24:14.802Z,81.60
2019-01-20T11:26:45.881Z,87.73
2019-01-20T11:29:16.484Z,91.33
2019-01-20T11:31:47.613Z,79.13
2019-01-20T11:34:19.289Z,89.57
2019-01-20T11:36:50.207Z,81.17
2019-01-20T11:39:21.354Z,82.53
2019-01-20T11:41:52.156Z,87.57
2019-01-20T11:44:23.232Z,85.47
2019-01-20T11:46:53.955Z,81.17
2019-01-20T11:49:24.865Z,73.37
2019-01-20T11:51:55.817Z,82.30
2019-01-20T11:54:27.897Z,82.57
2019-01-20T11:56:59.197Z,76.97
2019-01-20T11:59:30.250Z,73.00
2019-01-20T12:02:01.400Z,76.27
2019-01-20T12:04:32.196Z,83.13
2019-01-20T12:07:03.228Z,76.77
2019-01-20T12:09:34.358Z,81.60
2019-01-20T12:12:07.321Z,75.33
2019-01-20T12:14:38.890Z,65.73
2019-01-20T12:17:09.555Z,60.13
2019-01-20T12:19:41.178Z,73.77
2019-01-20T12:22:13.112Z,66.83
2019-01-20T12:24:43.531Z,66.63
2019-01-20T12:27:14.989Z,67.20
2019-01-20T12:29:51.831Z,69.27
2019-01-20T12:32:18.845Z,70.80
2019-01-20T12:34:50.944Z,62.87
2019-01-20T12:37:21.731Z,56.73
2019-01-20T12:39:52.463Z,54.87
2019-01-20T12:42:25.235Z,47.60
2019-01-20T12:44:56.592Z,48.00
2019-01-20T12:47:27.434Z,61.67
2019-01-20T12:49:58.150Z,61.30
2019-01-20T12:52:28.833Z,64.50
2019-01-20T12:54:59.572Z,80.97
2019-01-20T12:57:30.540Z,65.10
2019-01-20T13:00:01.081Z,58.10
2019-01-20T13:02:32.312Z,64.07
2019-01-20T13:05:03.671Z,67.10
2019-01-20T13:07:34.078Z,67.73
2019-01-20T13:10:05.976Z,67.43
2019-01-20T13:12:36.514Z,78.10
2019-01-20T13:15:09.274Z,72.60
2019-01-20T13:17:40.307Z,85.97
2019-01-20T13:20:14.867Z,72.30
2019-01-20T13:22:45.747Z,65.07
2019-01-20T13:25:20.580Z,66.20
2019-01-20T13:27:51.144Z,61.33
2019-01-20T13:30:23.979Z,68.93
2019-01-20T13:32:54.907Z,74.43
2019-01-20T13:35:26.697Z,72.73
2019-01-20T13:38:03.472Z,69.23
2019-01-20T13:40:40.745Z,69.43
2019-01-20T13:43:14.939Z,81.30
2019-01-20T13:45:46.047Z,84.07
2019-01-20T13:48:17.164Z,72.90
2019-01-20T13:50:47.833Z,72.97
2019-01-20T13:53:19.116Z,73.90
2019-01-20T13:55:51.629Z,83.70
2019-01-20T13:58:22.965Z,79.20
2019-01-20T14:00:53.683Z,85.33
2019-01-20T14:03:24.927Z,85.70
2019-01-20T14:05:55.757Z,91.23
2019-01-20T14:08:27.032Z,91.37
2019-01-20T14:10:57.640Z,92.57
2019-01-20T14:13:28.563Z,84.73
2019-01-20T14:15:59.629Z,84.17
2019-01-20T14:18:30.518Z,91.73
2019-01-20T14:21:01.994Z,92.00
2019-01-20T14:23:34.198Z,80.60
2019-01-20T14:26:06.039Z,83.37
2019-01-20T14:28:36.245Z,84.03
2019-01-20T14:31:07.152Z,90.90
2019-01-20T14:33:37.872Z,95.60
2019-01-20T14:36:09.150Z,87.10
2019-01-20T14:38:40.463Z,83.30
2019-01-20T14:41:12.099Z,88.00
2019-01-20T14:43:43.263Z,82.33
2019-01-20T14:46:14.381Z,103.47
2019-01-20T14:48:45.548Z,91.97
2019-01-20T14:51:16.601Z,91.77
2019-01-20T14:53:47.716Z,94.30
2019-01-20T14:56:19.711Z,100.03
2019-01-20T14:58:51.401Z,90.97
2019-01-20T15:01:23.463Z,81.10
2019-01-20T15:03:53.832Z,87.40
2019-01-20T15:06:25.436Z,80.80
2019-01-20T15:08:56.389Z,83.78
2019-01-20T15:11:28.700Z,90.47
2019-01-20T15:14:00.365Z,79.27
2019-01-20T15:16:31.269Z,93.43
2019-01-20T15:19:02.314Z,95.43
2019-01-20T15:21:33.590Z,104.47
2019-01-20T15:24:05.092Z,89.20
2019-01-20T15:26:36.029Z,93.20
2019-01-20T15:29:33.160Z,88.03
2019-01-20T15:32:16.311Z,94.17
2019-01-20T15:35:03.485Z,107.07
2019-01-20T15:37:52.057Z,100.00
2019-01-20T15:40:37.716Z,101.90
2019-01-20T15:43:43.031Z,108.00
2019-01-20T15:46:38.622Z,99.97
2019-01-20T15:49:19.563Z,109.80
2019-01-20T15:52:05.189Z,105.83
2019-01-20T15:54:52.844Z,90.47
2019-01-20T15:57:25.918Z,85.57
2019-01-20T16:00:13.500Z,88.90
2019-01-20T16:03:07.667Z,94.50
2019-01-20T16:06:09.606Z,99.13
2019-01-20T16:08:50.040Z,89.33
2019-01-20T16:11:21.129Z,96.47
2019-01-20T16:14:11.141Z,81.30
2019-01-20T16:17:05.418Z,74.10
2019-01-20T16:19:41.389Z,85.90
2019-01-20T16:22:22.369Z,82.83
2019-01-20T16:25:01.119Z,161.30
2019-01-20T16:27:41.012Z,86.33
2019-01-20T16:30:34.886Z,78.60
2019-01-20T16:33:14.946Z,88.37
2019-01-20T16:36:09.393Z,78.87
2019-01-20T16:38:58.506Z,75.63
2019-01-20T16:41:51.602Z,73.50
2019-01-20T16:44:46.844Z,80.50
2019-01-20T16:47:26.618Z,86.80
2019-01-20T16:50:04.413Z,74.37
2019-01-20T16:52:39.884Z,81.30
2019-01-20T16:55:16.742Z,77.47
2019-01-20T16:57:48.666Z,76.73
2019-01-20T17:00:46.348Z,81.97
2019-01-20T17:03:20.006Z,79.17
2019-01-20T17:06:02.882Z,85.60
2019-01-20T17:08:46.276Z,91.27
2019-01-20T17:11:18.858Z,84.97
2019-01-20T17:14:04.891Z,85.67
2019-01-20T17:17:01.199Z,83.83
2019-01-20T17:19:47.426Z,84.67
2019-01-20T17:22:31.630Z,83.03
2019-01-20T17:25:20.660Z,82.17
2019-01-20T17:28:14.164Z,77.83
2019-01-20T17:30:52.571Z,81.10
2019-01-20T17:33:36.481Z,76.27
2019-01-20T17:36:19.371Z,80.47
2019-01-20T17:39:00.698Z,86.13
2019-01-20T17:41:49.799Z,91.57
2019-01-20T17:44:31.844Z,83.33
2019-01-20T17:47:13.537Z,80.47
2019-01-20T17:49:47.378Z,86.07
2019-01-20T17:52:26.946Z,76.33
2019-01-20T17:55:15.468Z,94.83
2019-01-20T17:57:50.628Z,81.90
2019-01-20T18:00:42.875Z,81.40
2019-01-20T18:03:29.358Z,77.40
2019-01-20T18:06:12.586Z,95.47
2019-01-20T18:09:03.227Z,80.90
2019-01-20T18:11:48.430Z,97.63
2019-01-20T18:14:34.230Z,88.83
2019-01-20T18:17:22.629Z,86.37
2019-01-20T18:20:13.298Z,95.37
2019-01-20T18:23:05.473Z,86.83
2019-01-20T18:25:41.771Z,85.20
2019-01-20T18:28:14.476Z,91.60
2019-01-20T18:30:54.809Z,94.27
2019-01-20T18:33:36.949Z,95.43
2019-01-20T18:36:19.487Z,149.13
2019-01-20T18:38:50.013Z,89.27
2019-01-20T18:41:28.951Z,92.57
2019-01-20T18:44:13.220Z,87.17
2019-01-20T18:46:50.133Z,103.53
2019-01-20T18:49:26.008Z,93.33
2019-01-20T18:51:56.685Z,89.30
2019-01-20T18:54:29.351Z,96.47
2019-01-20T18:57:00.367Z,95.97
2019-01-20T18:59:53.416Z,98.97
2019-01-20T19:02:45.915Z,107.10
2019-01-20T19:05:30.606Z,110.63
2019-01-20T19:08:08.825Z,116.23
2019-01-20T19:11:15.711Z,108.03
2019-01-20T19:13:53.071Z,112.17
2019-01-20T19:16:28.417Z,108.80
2019-01-20T19:18:59.674Z,109.37
2019-01-20T19:21:42.047Z,117.23
2019-01-20T19:24:14.425Z,119.80
2019-01-20T19:26:52.382Z,123.67
2019-01-20T19:29:45.179Z,122.17
2019-01-20T19:32:25.956Z,132.23
2019-01-20T19:35:00.438Z,119.10
2019-01-20T19:37:39.308Z,127.27
2019-01-20T19:40:19.348Z,133.27
2019-01-20T19:42:55.053Z,139.07
2019-01-20T19:45:31.285Z,131.53
2019-01-20T19:48:24.465Z,149.23
2019-01-20T19:51:15.200Z,141.87
2019-01-20T19:53:58.534Z,135.73
2019-01-20T19:56:48.283Z,141.53
2019-01-20T19:59:35.718Z,152.50
2019-01-20T20:02:12.678Z,159.27
2019-01-20T20:04:52.281Z,146.30
2019-01-20T20:07:27.792Z,155.50
2019-01-20T20:10:14.640Z,156.53
2019-01-20T20:12:48.805Z,170.57
2019-01-20T20:15:30.351Z,154.97
2019-01-20T20:18:09.871Z,159.13
2019-01-20T20:20:52.995Z,155.50
2019-01-20T20:23:50.286Z,163.77
2019-01-20T20:26:24.194Z,167.80
2019-01-20T20:29:19.482Z,174.47
2019-01-20T20:32:15.870Z,166.03
2019-01-20T20:35:10.087Z,166.67
2019-01-20T20:38:12.807Z,325.47
2019-01-20T20:41:16.191Z,225.73
2019-01-20T20:43:55.319Z,158.50
2019-01-20T20:46:44.782Z,160.70
2019-01-20T20:49:44.618Z,142.37
2019-01-20T20:52:19.706Z,152.17
2019-01-20T20:54:51.211Z,154.03
2019-01-20T20:57:25.558Z,155.53
2019-01-20T20:59:58.948Z,144.43
2019-01-20T21:02:31.098Z,138.90
2019-01-20T21:05:06.576Z,152.57
2019-01-20T21:07:37.392Z,155.70
2019-01-20T21:10:16.782Z,157.10
2019-01-20T21:12:57.321Z,159.73
2019-01-20T21:15:32.912Z,164.27
2019-01-20T21:18:29.775Z,165.53
2019-01-20T21:21:04.047Z,172.67
2019-01-20T21:23:35.402Z,166.80
2019-01-20T21:26:07.183Z,165.37
2019-01-20T21:28:38.213Z,173.57
2019-01-20T21:31:16.142Z,164.90
2019-01-20T21:33:52.192Z,163.90
2019-01-20T21:36:23.745Z,160.87
2019-01-20T21:39:26.596Z,162.12
2019-01-20T21:41:58.888Z,160.90
2019-01-20T21:44:38.287Z,161.83
2019-01-20T21:47:21.546Z,153.63
2019-01-20T21:49:58.598Z,165.20
2019-01-20T21:52:35.151Z,162.90
2019-01-20T21:55:06.575Z,159.33
2019-01-20T21:57:37.712Z,168.07
2019-01-20T22:00:12.468Z,159.72
2019-01-20T22:02:45.603Z,151.63
2019-01-20T22:05:16.267Z,160.17
2019-01-20T22:07:56.186Z,173.30
2019-01-20T22:10:31.061Z,162.90
2019-01-20T22:13:18.184Z,159.17
2019-01-20T22:15:51.836Z,165.53
2019-01-20T22:18:36.742Z,164.63
2019-01-20T22:21:07.352Z,171.20
2019-01-20T22:23:53.222Z,168.43
2019-01-20T22:26:26.476Z,154.03
2019-01-20T22:29:16.855Z,156.83
2019-01-20T22:31:48.834Z,148.80
2019-01-20T22:34:26.926Z,152.07
2019-01-20T22:36:58.471Z,171.07
2019-01-20T22:39:33.167Z,146.33
2019-01-20T22:42:03.708Z,151.37
2019-01-20T22:44:34.122Z,164.23
2019-01-20T22:47:10.063Z,159.90
2019-01-20T22:49:41.806Z,157.40
2019-01-20T22:52:12.973Z,163.23
2019-01-20T22:54:44.251Z,167.60
2019-01-20T22:57:16.690Z,158.40
2019-01-20T22:59:47.500Z,166.17
2019-01-20T23:02:19.430Z,156.33
2019-01-20T23:04:50.338Z,174.80
2019-01-20T23:07:21.344Z,160.80
2019-01-20T23:09:51.859Z,170.57
2019-01-20T23:12:23.029Z,152.90
2019-01-20T23:14:53.951Z,166.77
2019-01-20T23:17:25.373Z,170.93
2019-01-20T23:19:56.224Z,179.47
2019-01-20T23:22:27.535Z,174.10
2019-01-20T23:24:58.227Z,156.90
2019-01-20T23:27:29.673Z,178.50
2019-01-20T23:30:00.926Z,161.63
2019-01-20T23:32:35.471Z,186.17
2019-01-20T23:35:07.292Z,177.47
2019-01-20T23:37:38.732Z,173.73
2019-01-20T23:40:10.382Z,176.60
2019-01-20T23:42:41.426Z,158.90
2019-01-20T23:45:13.192Z,173.20
2019-01-20T23:47:44.329Z,182.70
2019-01-20T23:50:16.029Z,175.10
2019-01-20T23:52:46.403Z,162.80
2019-01-20T23:55:17.203Z,171.57
2019-01-20T23:57:47.872Z,182.93
